sensor_id;sensor_type;location;lat;lon;timestamp;P1;durP1;ratioP1;P2;durP2;ratioP2
8564;SDS011;4320;51.498;6.556;2023-05-10T00:01:11;16.08;;;10.43;;
8564;SDS011;4320;51.498;6.556;2023-05-10T00:03:36;17.08;;;9.80;;
8564;SDS011;4320;51.498;6.556;2023-05-10T00:06:02;15.60;;;9.55;;
8564;SDS011;4320;51.498;6.556;2023-05-10T00:08:28;18.85;;;10.93;;
8564;SDS011;4320;51.498;6.556;2023-05-10T00:10:53;16.42;;;10.65;;
8564;SDS011;4320;51.498;6.556;2023-05-10T00:13:19;15.30;;;9.88;;
8564;SDS011;4320;51.498;6.556;2023-05-10T00:15:45;15.65;;;10.55;;
8564;SDS011;4320;51.498;6.556;2023-05-10T00:18:10;19.85;;;11.85;;
8564;SDS011;4320;51.498;6.556;2023-05-10T00:20:36;19.63;;;11.93;;
8564;SDS011;4320;51.498;6.556;2023-05-10T00:23:01;18.20;;;12.10;;
8564;SDS011;4320;51.498;6.556;2023-05-10T00:25:27;19.40;;;12.27;;
8564;SDS011;4320;51.498;6.556;2023-05-10T00:27:53;19.13;;;12.65;;
8564;SDS011;4320;51.498;6.556;2023-05-10T00:30:20;20.08;;;12.63;;
8564;SDS011;4320;51.498;6.556;2023-05-10T00:32:45;22.20;;;12.55;;
8564;SDS011;4320;51.498;6.556;2023-05-10T00:35:13;23.17;;;12.85;;
8564;SDS011;4320;51.498;6.556;2023-05-10T00:37:38;20.10;;;11.73;;
8564;SDS011;4320;51.498;6.556;2023-05-10T00:40:05;21.15;;;12.82;;
8564;SDS011;4320;51.498;6.556;2023-05-10T00:42:31;19.05;;;11.98;;
8564;SDS011;4320;51.498;6.556;2023-05-10T00:44:56;20.42;;;12.70;;
8564;SDS011;4320;51.498;6.556;2023-05-10T00:47:22;19.55;;;11.80;;
8564;SDS011;4320;51.498;6.556;2023-05-10T00:49:48;22.15;;;13.13;;
8564;SDS011;4320;51.498;6.556;2023-05-10T00:52:14;19.35;;;12.55;;
8564;SDS011;4320;51.498;6.556;2023-05-10T00:54:40;20.05;;;12.93;;
8564;SDS011;4320;51.498;6.556;2023-05-10T00:57:06;20.48;;;12.65;;
8564;SDS011;4320;51.498;6.556;2023-05-10T00:59:32;19.17;;;11.60;;
8564;SDS011;4320;51.498;6.556;2023-05-10T01:01:58;19.92;;;11.70;;
8564;SDS011;4320;51.498;6.556;2023-05-10T01:04:24;18.95;;;11.75;;
8564;SDS011;4320;51.498;6.556;2023-05-10T01:06:53;23.40;;;12.10;;
8564;SDS011;4320;51.498;6.556;2023-05-10T01:09:19;18.50;;;12.43;;
8564;SDS011;4320;51.498;6.556;2023-05-10T01:11:46;18.77;;;11.35;;
8564;SDS011;4320;51.498;6.556;2023-05-10T01:14:13;19.38;;;11.80;;
8564;SDS011;4320;51.498;6.556;2023-05-10T01:16:40;18.50;;;12.43;;
8564;SDS011;4320;51.498;6.556;2023-05-10T01:19:11;21.65;;;12.75;;
8564;SDS011;4320;51.498;6.556;2023-05-10T01:35:34;28.55;;;16.85;;
8564;SDS011;4320;51.498;6.556;2023-05-10T01:38:19;33.42;;;17.20;;
8564;SDS011;4320;51.498;6.556;2023-05-10T01:43:33;29.52;;;16.50;;
8564;SDS011;4320;51.498;6.556;2023-05-10T01:46:09;26.70;;;15.45;;
8564;SDS011;4320;51.498;6.556;2023-05-10T01:49:02;24.95;;;15.88;;
8564;SDS011;4320;51.498;6.556;2023-05-10T01:51:29;30.02;;;16.55;;
8564;SDS011;4320;51.498;6.556;2023-05-10T01:54:04;26.42;;;16.55;;
8564;SDS011;4320;51.498;6.556;2023-05-10T01:56:32;28.73;;;17.48;;
8564;SDS011;4320;51.498;6.556;2023-05-10T01:58:59;27.70;;;17.17;;
8564;SDS011;4320;51.498;6.556;2023-05-10T02:01:30;29.02;;;16.92;;
8564;SDS011;4320;51.498;6.556;2023-05-10T02:03:58;28.20;;;15.43;;
8564;SDS011;4320;51.498;6.556;2023-05-10T02:06:24;28.25;;;15.15;;
8564;SDS011;4320;51.498;6.556;2023-05-10T02:08:52;30.02;;;15.20;;
8564;SDS011;4320;51.498;6.556;2023-05-10T02:11:18;25.08;;;14.35;;
8564;SDS011;4320;51.498;6.556;2023-05-10T02:13:46;22.58;;;13.88;;
8564;SDS011;4320;51.498;6.556;2023-05-10T02:16:14;28.33;;;15.85;;
8564;SDS011;4320;51.498;6.556;2023-05-10T02:18:40;20.88;;;13.45;;
8564;SDS011;4320;51.498;6.556;2023-05-10T02:21:06;20.98;;;13.38;;
8564;SDS011;4320;51.498;6.556;2023-05-10T02:23:33;23.90;;;13.43;;
8564;SDS011;4320;51.498;6.556;2023-05-10T02:26:00;23.13;;;13.73;;
8564;SDS011;4320;51.498;6.556;2023-05-10T02:28:27;24.30;;;14.45;;
8564;SDS011;4320;51.498;6.556;2023-05-10T02:30:54;24.95;;;14.27;;
8564;SDS011;4320;51.498;6.556;2023-05-10T02:33:20;20.40;;;13.55;;
8564;SDS011;4320;51.498;6.556;2023-05-10T02:35:47;25.70;;;15.57;;
8564;SDS011;4320;51.498;6.556;2023-05-10T02:38:14;22.90;;;13.93;;
8564;SDS011;4320;51.498;6.556;2023-05-10T02:40:41;21.70;;;13.13;;
8564;SDS011;4320;51.498;6.556;2023-05-10T02:43:09;26.75;;;14.45;;
8564;SDS011;4320;51.498;6.556;2023-05-10T02:45:38;23.42;;;13.65;;
8564;SDS011;4320;51.498;6.556;2023-05-10T02:48:05;24.58;;;13.90;;
8564;SDS011;4320;51.498;6.556;2023-05-10T02:50:32;23.90;;;14.10;;
8564;SDS011;4320;51.498;6.556;2023-05-10T02:53:03;25.67;;;15.00;;
8564;SDS011;4320;51.498;6.556;2023-05-10T02:55:36;20.05;;;13.38;;
8564;SDS011;4320;51.498;6.556;2023-05-10T02:58:05;25.35;;;14.50;;
8564;SDS011;4320;51.498;6.556;2023-05-10T03:00:31;26.23;;;14.90;;
8564;SDS011;4320;51.498;6.556;2023-05-10T03:02:57;24.10;;;13.73;;
8564;SDS011;4320;51.498;6.556;2023-05-10T03:05:23;26.42;;;13.55;;
8564;SDS011;4320;51.498;6.556;2023-05-10T03:07:48;23.35;;;14.07;;
8564;SDS011;4320;51.498;6.556;2023-05-10T03:10:15;23.33;;;12.77;;
8564;SDS011;4320;51.498;6.556;2023-05-10T03:13:01;24.90;;;14.18;;
8564;SDS011;4320;51.498;6.556;2023-05-10T03:21:11;25.60;;;14.05;;
8564;SDS011;4320;51.498;6.556;2023-05-10T03:23:43;27.83;;;14.77;;
8564;SDS011;4320;51.498;6.556;2023-05-10T03:26:13;25.80;;;14.05;;
8564;SDS011;4320;51.498;6.556;2023-05-10T03:28:49;23.98;;;14.93;;
8564;SDS011;4320;51.498;6.556;2023-05-10T03:31:15;24.98;;;13.90;;
8564;SDS011;4320;51.498;6.556;2023-05-10T03:33:49;25.58;;;14.55;;
8564;SDS011;4320;51.498;6.556;2023-05-10T03:36:15;26.05;;;15.43;;
8564;SDS011;4320;51.498;6.556;2023-05-10T03:38:41;29.50;;;15.52;;
8564;SDS011;4320;51.498;6.556;2023-05-10T03:41:06;27.25;;;14.55;;
8564;SDS011;4320;51.498;6.556;2023-05-10T03:43:32;28.58;;;16.48;;
8564;SDS011;4320;51.498;6.556;2023-05-10T03:45:58;33.30;;;16.52;;
8564;SDS011;4320;51.498;6.556;2023-05-10T03:48:23;31.17;;;17.08;;
8564;SDS011;4320;51.498;6.556;2023-05-10T03:50:49;31.35;;;17.42;;
8564;SDS011;4320;51.498;6.556;2023-05-10T03:53:15;30.98;;;16.73;;
8564;SDS011;4320;51.498;6.556;2023-05-10T03:55:40;35.17;;;18.15;;
8564;SDS011;4320;51.498;6.556;2023-05-10T03:58:06;33.70;;;18.52;;
8564;SDS011;4320;51.498;6.556;2023-05-10T04:00:35;40.65;;;20.58;;
8564;SDS011;4320;51.498;6.556;2023-05-10T04:03:00;34.28;;;19.08;;
8564;SDS011;4320;51.498;6.556;2023-05-10T04:05:26;36.38;;;18.75;;
8564;SDS011;4320;51.498;6.556;2023-05-10T04:07:52;36.63;;;20.10;;
8564;SDS011;4320;51.498;6.556;2023-05-10T04:10:17;37.17;;;19.17;;
8564;SDS011;4320;51.498;6.556;2023-05-10T04:12:43;34.40;;;18.23;;
8564;SDS011;4320;51.498;6.556;2023-05-10T04:15:09;37.85;;;20.27;;
8564;SDS011;4320;51.498;6.556;2023-05-10T04:17:34;34.03;;;19.27;;
8564;SDS011;4320;51.498;6.556;2023-05-10T04:20:00;39.08;;;20.38;;
8564;SDS011;4320;51.498;6.556;2023-05-10T04:22:25;40.35;;;21.27;;
8564;SDS011;4320;51.498;6.556;2023-05-10T04:24:52;37.97;;;20.98;;
8564;SDS011;4320;51.498;6.556;2023-05-10T04:27:18;38.25;;;20.75;;
8564;SDS011;4320;51.498;6.556;2023-05-10T04:29:43;41.53;;;22.63;;
8564;SDS011;4320;51.498;6.556;2023-05-10T04:32:09;38.88;;;22.52;;
8564;SDS011;4320;51.498;6.556;2023-05-10T04:34:35;40.33;;;22.65;;
8564;SDS011;4320;51.498;6.556;2023-05-10T04:37:01;40.47;;;22.38;;
8564;SDS011;4320;51.498;6.556;2023-05-10T04:39:27;47.03;;;23.75;;
8564;SDS011;4320;51.498;6.556;2023-05-10T04:41:52;49.83;;;26.23;;
8564;SDS011;4320;51.498;6.556;2023-05-10T04:44:18;45.05;;;23.20;;
8564;SDS011;4320;51.498;6.556;2023-05-10T04:46:44;41.97;;;24.27;;
8564;SDS011;4320;51.498;6.556;2023-05-10T04:49:09;40.92;;;23.80;;
8564;SDS011;4320;51.498;6.556;2023-05-10T04:51:35;47.63;;;25.08;;
8564;SDS011;4320;51.498;6.556;2023-05-10T04:54:00;37.05;;;21.42;;
8564;SDS011;4320;51.498;6.556;2023-05-10T04:56:26;47.08;;;24.08;;
8564;SDS011;4320;51.498;6.556;2023-05-10T04:58:52;43.33;;;24.55;;
8564;SDS011;4320;51.498;6.556;2023-05-10T05:01:17;42.67;;;24.58;;
8564;SDS011;4320;51.498;6.556;2023-05-10T05:03:43;50.75;;;26.25;;
8564;SDS011;4320;51.498;6.556;2023-05-10T05:06:08;45.22;;;23.95;;
8564;SDS011;4320;51.498;6.556;2023-05-10T05:08:34;46.65;;;25.42;;
8564;SDS011;4320;51.498;6.556;2023-05-10T05:11:00;45.10;;;25.27;;
8564;SDS011;4320;51.498;6.556;2023-05-10T05:13:25;50.15;;;24.60;;
8564;SDS011;4320;51.498;6.556;2023-05-10T05:15:51;51.70;;;25.95;;
8564;SDS011;4320;51.498;6.556;2023-05-10T05:18:16;46.42;;;25.75;;
8564;SDS011;4320;51.498;6.556;2023-05-10T05:20:42;46.22;;;23.85;;
8564;SDS011;4320;51.498;6.556;2023-05-10T05:23:08;44.63;;;24.35;;
8564;SDS011;4320;51.498;6.556;2023-05-10T05:25:33;47.75;;;25.33;;
8564;SDS011;4320;51.498;6.556;2023-05-10T05:27:59;49.47;;;24.90;;
8564;SDS011;4320;51.498;6.556;2023-05-10T05:30:24;45.15;;;24.65;;
8564;SDS011;4320;51.498;6.556;2023-05-10T05:32:50;44.70;;;24.00;;
8564;SDS011;4320;51.498;6.556;2023-05-10T05:35:16;45.85;;;25.02;;
8564;SDS011;4320;51.498;6.556;2023-05-10T05:37:41;43.03;;;24.63;;
8564;SDS011;4320;51.498;6.556;2023-05-10T05:40:07;49.10;;;27.20;;
8564;SDS011;4320;51.498;6.556;2023-05-10T05:42:33;48.33;;;26.50;;
8564;SDS011;4320;51.498;6.556;2023-05-10T05:44:59;45.38;;;25.20;;
8564;SDS011;4320;51.498;6.556;2023-05-10T05:47:24;43.03;;;23.73;;
8564;SDS011;4320;51.498;6.556;2023-05-10T05:49:50;48.55;;;25.65;;
8564;SDS011;4320;51.498;6.556;2023-05-10T05:52:16;46.10;;;27.15;;
8564;SDS011;4320;51.498;6.556;2023-05-10T05:54:41;49.85;;;26.52;;
8564;SDS011;4320;51.498;6.556;2023-05-10T05:57:07;47.60;;;24.92;;
8564;SDS011;4320;51.498;6.556;2023-05-10T05:59:33;47.70;;;26.40;;
8564;SDS011;4320;51.498;6.556;2023-05-10T06:01:58;49.53;;;26.02;;
8564;SDS011;4320;51.498;6.556;2023-05-10T06:04:24;46.20;;;26.20;;
8564;SDS011;4320;51.498;6.556;2023-05-10T06:06:49;51.22;;;27.33;;
8564;SDS011;4320;51.498;6.556;2023-05-10T06:09:15;44.55;;;26.05;;
8564;SDS011;4320;51.498;6.556;2023-05-10T06:11:41;51.10;;;27.13;;
8564;SDS011;4320;51.498;6.556;2023-05-10T06:14:07;52.70;;;27.63;;
8564;SDS011;4320;51.498;6.556;2023-05-10T06:16:33;48.75;;;26.55;;
8564;SDS011;4320;51.498;6.556;2023-05-10T06:18:59;52.67;;;26.92;;
8564;SDS011;4320;51.498;6.556;2023-05-10T06:21:25;49.92;;;27.55;;
8564;SDS011;4320;51.498;6.556;2023-05-10T06:23:50;50.67;;;27.95;;
8564;SDS011;4320;51.498;6.556;2023-05-10T06:26:16;52.63;;;28.88;;
8564;SDS011;4320;51.498;6.556;2023-05-10T06:28:42;52.13;;;26.95;;
8564;SDS011;4320;51.498;6.556;2023-05-10T06:31:07;52.90;;;28.27;;
8564;SDS011;4320;51.498;6.556;2023-05-10T06:33:33;58.92;;;29.45;;
8564;SDS011;4320;51.498;6.556;2023-05-10T06:35:59;52.58;;;27.83;;
8564;SDS011;4320;51.498;6.556;2023-05-10T06:38:25;50.70;;;27.92;;
8564;SDS011;4320;51.498;6.556;2023-05-10T06:40:51;52.65;;;27.13;;
8564;SDS011;4320;51.498;6.556;2023-05-10T06:43:16;57.40;;;28.23;;
8564;SDS011;4320;51.498;6.556;2023-05-10T06:45:42;59.15;;;27.92;;
8564;SDS011;4320;51.498;6.556;2023-05-10T06:48:08;58.95;;;28.23;;
8564;SDS011;4320;51.498;6.556;2023-05-10T06:50:33;57.53;;;29.00;;
8564;SDS011;4320;51.498;6.556;2023-05-10T06:52:59;58.92;;;28.02;;
8564;SDS011;4320;51.498;6.556;2023-05-10T06:55:26;58.10;;;28.70;;
8564;SDS011;4320;51.498;6.556;2023-05-10T06:57:53;57.38;;;28.10;;
8564;SDS011;4320;51.498;6.556;2023-05-10T07:00:19;52.05;;;27.80;;
8564;SDS011;4320;51.498;6.556;2023-05-10T07:02:45;54.70;;;27.92;;
8564;SDS011;4320;51.498;6.556;2023-05-10T07:05:11;56.88;;;27.23;;
8564;SDS011;4320;51.498;6.556;2023-05-10T07:07:37;54.10;;;27.15;;
8564;SDS011;4320;51.498;6.556;2023-05-10T07:10:02;57.17;;;25.58;;
8564;SDS011;4320;51.498;6.556;2023-05-10T07:12:28;53.30;;;25.98;;
8564;SDS011;4320;51.498;6.556;2023-05-10T07:14:54;48.42;;;23.13;;
8564;SDS011;4320;51.498;6.556;2023-05-10T07:17:20;54.67;;;25.70;;
8564;SDS011;4320;51.498;6.556;2023-05-10T07:19:45;59.58;;;25.98;;
8564;SDS011;4320;51.498;6.556;2023-05-10T07:22:11;52.67;;;25.88;;
8564;SDS011;4320;51.498;6.556;2023-05-10T07:24:37;48.22;;;24.45;;
8564;SDS011;4320;51.498;6.556;2023-05-10T07:27:03;57.58;;;24.58;;
8564;SDS011;4320;51.498;6.556;2023-05-10T07:29:29;56.15;;;27.27;;
8564;SDS011;4320;51.498;6.556;2023-05-10T07:31:54;55.85;;;25.52;;
8564;SDS011;4320;51.498;6.556;2023-05-10T07:34:20;62.78;;;27.00;;
8564;SDS011;4320;51.498;6.556;2023-05-10T07:36:46;64.90;;;27.30;;
8564;SDS011;4320;51.498;6.556;2023-05-10T07:39:12;52.88;;;24.98;;
8564;SDS011;4320;51.498;6.556;2023-05-10T07:41:37;60.25;;;28.08;;
8564;SDS011;4320;51.498;6.556;2023-05-10T07:44:03;60.42;;;27.05;;
8564;SDS011;4320;51.498;6.556;2023-05-10T07:46:29;48.97;;;26.58;;
8564;SDS011;4320;51.498;6.556;2023-05-10T07:48:55;47.10;;;23.58;;
8564;SDS011;4320;51.498;6.556;2023-05-10T07:51:21;42.95;;;22.73;;
8564;SDS011;4320;51.498;6.556;2023-05-10T07:53:46;44.88;;;22.60;;
8564;SDS011;4320;51.498;6.556;2023-05-10T07:58:57;52.70;;;24.48;;
8564;SDS011;4320;51.498;6.556;2023-05-10T08:01:24;45.72;;;23.08;;
8564;SDS011;4320;51.498;6.556;2023-05-10T08:03:50;43.45;;;22.65;;
8564;SDS011;4320;51.498;6.556;2023-05-10T08:06:18;45.45;;;23.73;;
8564;SDS011;4320;51.498;6.556;2023-05-10T08:08:45;45.45;;;24.23;;
8564;SDS011;4320;51.498;6.556;2023-05-10T08:11:14;40.33;;;22.42;;
8564;SDS011;4320;51.498;6.556;2023-05-10T08:13:41;35.42;;;21.45;;
8564;SDS011;4320;51.498;6.556;2023-05-10T08:16:06;36.85;;;22.15;;
8564;SDS011;4320;51.498;6.556;2023-05-10T08:18:32;37.90;;;20.52;;
8564;SDS011;4320;51.498;6.556;2023-05-10T08:20:57;32.30;;;18.95;;
8564;SDS011;4320;51.498;6.556;2023-05-10T08:23:23;36.80;;;19.63;;
8564;SDS011;4320;51.498;6.556;2023-05-10T08:25:49;30.55;;;19.00;;
8564;SDS011;4320;51.498;6.556;2023-05-10T08:28:14;27.48;;;17.95;;
8564;SDS011;4320;51.498;6.556;2023-05-10T08:30:40;30.48;;;19.08;;
8564;SDS011;4320;51.498;6.556;2023-05-10T08:33:05;27.92;;;17.58;;
8564;SDS011;4320;51.498;6.556;2023-05-10T08:35:31;29.27;;;16.95;;
8564;SDS011;4320;51.498;6.556;2023-05-10T08:37:58;27.42;;;16.73;;
8564;SDS011;4320;51.498;6.556;2023-05-10T08:40:23;29.98;;;17.70;;
8564;SDS011;4320;51.498;6.556;2023-05-10T08:42:51;27.13;;;16.90;;
8564;SDS011;4320;51.498;6.556;2023-05-10T08:45:22;29.38;;;16.65;;
8564;SDS011;4320;51.498;6.556;2023-05-10T08:47:49;28.20;;;17.10;;
8564;SDS011;4320;51.498;6.556;2023-05-10T08:50:17;27.33;;;16.58;;
8564;SDS011;4320;51.498;6.556;2023-05-10T08:52:45;30.25;;;17.63;;
8564;SDS011;4320;51.498;6.556;2023-05-10T08:55:12;25.08;;;16.02;;
8564;SDS011;4320;51.498;6.556;2023-05-10T08:57:38;31.52;;;17.17;;
8564;SDS011;4320;51.498;6.556;2023-05-10T09:00:04;26.48;;;17.58;;
8564;SDS011;4320;51.498;6.556;2023-05-10T09:02:31;25.92;;;16.17;;
8564;SDS011;4320;51.498;6.556;2023-05-10T09:04:56;23.63;;;14.88;;
8564;SDS011;4320;51.498;6.556;2023-05-10T09:07:22;23.15;;;14.63;;
8564;SDS011;4320;51.498;6.556;2023-05-10T09:09:48;21.15;;;13.95;;
8564;SDS011;4320;51.498;6.556;2023-05-10T09:12:13;24.05;;;14.95;;
8564;SDS011;4320;51.498;6.556;2023-05-10T09:14:41;25.85;;;14.70;;
8564;SDS011;4320;51.498;6.556;2023-05-10T09:17:08;23.48;;;14.82;;
8564;SDS011;4320;51.498;6.556;2023-05-10T09:19:35;22.95;;;14.40;;
8564;SDS011;4320;51.498;6.556;2023-05-10T09:22:00;25.48;;;15.85;;
8564;SDS011;4320;51.498;6.556;2023-05-10T09:24:28;30.20;;;16.65;;
8564;SDS011;4320;51.498;6.556;2023-05-10T09:26:55;23.58;;;14.27;;
8564;SDS011;4320;51.498;6.556;2023-05-10T09:29:23;23.58;;;14.80;;
8564;SDS011;4320;51.498;6.556;2023-05-10T09:31:49;23.63;;;15.13;;
8564;SDS011;4320;51.498;6.556;2023-05-10T09:34:17;22.85;;;14.13;;
8564;SDS011;4320;51.498;6.556;2023-05-10T09:36:54;24.80;;;14.95;;
8564;SDS011;4320;51.498;6.556;2023-05-10T09:39:28;24.33;;;15.75;;
8564;SDS011;4320;51.498;6.556;2023-05-10T09:41:56;26.40;;;15.38;;
8564;SDS011;4320;51.498;6.556;2023-05-10T09:44:22;26.83;;;15.93;;
8564;SDS011;4320;51.498;6.556;2023-05-10T09:46:48;25.70;;;16.73;;
8564;SDS011;4320;51.498;6.556;2023-05-10T09:49:15;23.80;;;16.48;;
8564;SDS011;4320;51.498;6.556;2023-05-10T09:51:41;28.73;;;14.90;;
8564;SDS011;4320;51.498;6.556;2023-05-10T09:54:11;21.05;;;13.40;;
8564;SDS011;4320;51.498;6.556;2023-05-10T09:56:40;25.75;;;15.73;;
8564;SDS011;4320;51.498;6.556;2023-05-10T09:59:07;26.02;;;14.75;;
8564;SDS011;4320;51.498;6.556;2023-05-10T10:01:35;23.35;;;15.25;;
8564;SDS011;4320;51.498;6.556;2023-05-10T10:04:04;25.10;;;14.88;;
8564;SDS011;4320;51.498;6.556;2023-05-10T10:06:37;23.42;;;15.30;;
8564;SDS011;4320;51.498;6.556;2023-05-10T10:09:04;26.55;;;16.55;;
8564;SDS011;4320;51.498;6.556;2023-05-10T10:11:34;25.27;;;15.10;;
8564;SDS011;4320;51.498;6.556;2023-05-10T10:14:00;21.27;;;14.75;;
8564;SDS011;4320;51.498;6.556;2023-05-10T10:16:27;25.05;;;15.55;;
8564;SDS011;4320;51.498;6.556;2023-05-10T10:18:54;27.58;;;16.65;;
8564;SDS011;4320;51.498;6.556;2023-05-10T10:21:20;29.02;;;18.10;;
8564;SDS011;4320;51.498;6.556;2023-05-10T10:23:47;27.45;;;17.20;;
8564;SDS011;4320;51.498;6.556;2023-05-10T10:26:13;26.75;;;16.67;;
8564;SDS011;4320;51.498;6.556;2023-05-10T10:31:21;27.23;;;17.33;;
8564;SDS011;4320;51.498;6.556;2023-05-10T10:34:06;25.55;;;17.05;;
8564;SDS011;4320;51.498;6.556;2023-05-10T10:36:39;26.08;;;15.77;;
8564;SDS011;4320;51.498;6.556;2023-05-10T10:39:10;27.83;;;18.45;;
8564;SDS011;4320;51.498;6.556;2023-05-10T10:41:37;31.40;;;18.10;;
8564;SDS011;4320;51.498;6.556;2023-05-10T10:47:04;29.58;;;19.30;;
8564;SDS011;4320;51.498;6.556;2023-05-10T10:49:38;30.27;;;17.80;;
8564;SDS011;4320;51.498;6.556;2023-05-10T10:52:15;31.73;;;19.00;;
8564;SDS011;4320;51.498;6.556;2023-05-10T10:54:41;27.60;;;18.23;;
8564;SDS011;4320;51.498;6.556;2023-05-10T10:57:17;26.67;;;17.65;;
8564;SDS011;4320;51.498;6.556;2023-05-10T10:59:44;28.67;;;17.48;;
8564;SDS011;4320;51.498;6.556;2023-05-10T11:02:10;28.70;;;18.15;;
8564;SDS011;4320;51.498;6.556;2023-05-10T11:05:00;24.35;;;17.02;;
8564;SDS011;4320;51.498;6.556;2023-05-10T11:07:56;23.70;;;16.08;;
8564;SDS011;4320;51.498;6.556;2023-05-10T11:10:22;28.58;;;16.63;;
8564;SDS011;4320;51.498;6.556;2023-05-10T11:13:03;18.92;;;12.85;;
8564;SDS011;4320;51.498;6.556;2023-05-10T11:17:57;19.08;;;12.73;;
8564;SDS011;4320;51.498;6.556;2023-05-10T11:20:23;17.70;;;11.90;;
8564;SDS011;4320;51.498;6.556;2023-05-10T11:22:57;17.83;;;14.02;;
8564;SDS011;4320;51.498;6.556;2023-05-10T11:25:35;16.27;;;12.40;;
8564;SDS011;4320;51.498;6.556;2023-05-10T11:28:09;15.25;;;11.30;;
8564;SDS011;4320;51.498;6.556;2023-05-10T11:30:39;15.70;;;11.32;;
8564;SDS011;4320;51.498;6.556;2023-05-10T11:33:06;16.13;;;11.73;;
8564;SDS011;4320;51.498;6.556;2023-05-10T11:35:38;14.00;;;10.27;;
8564;SDS011;4320;51.498;6.556;2023-05-10T11:38:05;14.75;;;10.30;;
8564;SDS011;4320;51.498;6.556;2023-05-10T11:40:31;17.20;;;9.38;;
8564;SDS011;4320;51.498;6.556;2023-05-10T11:42:57;10.65;;;9.02;;
8564;SDS011;4320;51.498;6.556;2023-05-10T11:45:23;12.05;;;9.15;;
8564;SDS011;4320;51.498;6.556;2023-05-10T11:47:50;12.02;;;9.18;;
8564;SDS011;4320;51.498;6.556;2023-05-10T11:50:16;11.73;;;8.57;;
8564;SDS011;4320;51.498;6.556;2023-05-10T11:52:42;13.50;;;8.95;;
8564;SDS011;4320;51.498;6.556;2023-05-10T11:55:08;10.88;;;8.85;;
8564;SDS011;4320;51.498;6.556;2023-05-10T11:57:34;12.82;;;8.02;;
8564;SDS011;4320;51.498;6.556;2023-05-10T12:00:00;11.35;;;8.02;;
8564;SDS011;4320;51.498;6.556;2023-05-10T12:02:28;12.38;;;8.60;;
8564;SDS011;4320;51.498;6.556;2023-05-10T12:04:55;10.27;;;7.70;;
8564;SDS011;4320;51.498;6.556;2023-05-10T12:07:21;9.63;;;7.90;;
8564;SDS011;4320;51.498;6.556;2023-05-10T12:10:06;10.38;;;7.70;;
8564;SDS011;4320;51.498;6.556;2023-05-10T12:12:37;9.45;;;6.97;;
8564;SDS011;4320;51.498;6.556;2023-05-10T12:15:10;10.27;;;7.97;;
8564;SDS011;4320;51.498;6.556;2023-05-10T12:17:38;9.70;;;6.82;;
8564;SDS011;4320;51.498;6.556;2023-05-10T12:20:15;12.38;;;7.05;;
8564;SDS011;4320;51.498;6.556;2023-05-10T12:22:52;8.75;;;6.80;;
8564;SDS011;4320;51.498;6.556;2023-05-10T12:25:18;11.90;;;7.05;;
8564;SDS011;4320;51.498;6.556;2023-05-10T12:27:53;10.45;;;6.00;;
8564;SDS011;4320;51.498;6.556;2023-05-10T12:30:24;7.13;;;6.38;;
8564;SDS011;4320;51.498;6.556;2023-05-10T12:32:52;7.97;;;6.47;;
8564;SDS011;4320;51.498;6.556;2023-05-10T12:35:18;7.88;;;6.80;;
8564;SDS011;4320;51.498;6.556;2023-05-10T12:37:49;10.70;;;6.93;;
8564;SDS011;4320;51.498;6.556;2023-05-10T12:40:15;13.00;;;7.05;;
8564;SDS011;4320;51.498;6.556;2023-05-10T12:42:41;7.43;;;6.60;;
8564;SDS011;4320;51.498;6.556;2023-05-10T12:45:08;10.40;;;5.95;;
8564;SDS011;4320;51.498;6.556;2023-05-10T12:47:34;7.25;;;5.68;;
8564;SDS011;4320;51.498;6.556;2023-05-10T12:50:00;8.48;;;5.70;;
8564;SDS011;4320;51.498;6.556;2023-05-10T12:52:27;9.85;;;5.88;;
8564;SDS011;4320;51.498;6.556;2023-05-10T12:54:53;7.10;;;6.30;;
8564;SDS011;4320;51.498;6.556;2023-05-10T12:57:22;8.35;;;6.30;;
8564;SDS011;4320;51.498;6.556;2023-05-10T12:59:48;8.30;;;5.75;;
8564;SDS011;4320;51.498;6.556;2023-05-10T13:02:15;8.77;;;6.50;;
8564;SDS011;4320;51.498;6.556;2023-05-10T13:04:43;6.97;;;6.00;;
8564;SDS011;4320;51.498;6.556;2023-05-10T13:07:09;6.72;;;5.90;;
8564;SDS011;4320;51.498;6.556;2023-05-10T13:09:35;6.97;;;6.28;;
8564;SDS011;4320;51.498;6.556;2023-05-10T13:12:01;9.40;;;6.55;;
8564;SDS011;4320;51.498;6.556;2023-05-10T13:14:26;8.45;;;5.82;;
8564;SDS011;4320;51.498;6.556;2023-05-10T13:16:52;7.25;;;5.97;;
8564;SDS011;4320;51.498;6.556;2023-05-10T13:19:18;8.43;;;6.82;;
8564;SDS011;4320;51.498;6.556;2023-05-10T13:21:44;10.65;;;6.85;;
8564;SDS011;4320;51.498;6.556;2023-05-10T13:24:10;9.80;;;6.95;;
8564;SDS011;4320;51.498;6.556;2023-05-10T13:26:38;8.57;;;7.03;;
8564;SDS011;4320;51.498;6.556;2023-05-10T13:29:05;10.65;;;8.40;;
8564;SDS011;4320;51.498;6.556;2023-05-10T13:31:30;10.25;;;7.22;;
8564;SDS011;4320;51.498;6.556;2023-05-10T13:33:56;8.23;;;6.70;;
8564;SDS011;4320;51.498;6.556;2023-05-10T13:36:21;7.93;;;6.03;;
8564;SDS011;4320;51.498;6.556;2023-05-10T13:38:47;8.23;;;7.10;;
8564;SDS011;4320;51.498;6.556;2023-05-10T13:41:13;7.45;;;6.70;;
8564;SDS011;4320;51.498;6.556;2023-05-10T13:43:39;9.93;;;8.90;;
8564;SDS011;4320;51.498;6.556;2023-05-10T13:46:05;11.30;;;7.80;;
8564;SDS011;4320;51.498;6.556;2023-05-10T13:48:30;11.85;;;9.07;;
8564;SDS011;4320;51.498;6.556;2023-05-10T13:50:56;8.80;;;7.90;;
8564;SDS011;4320;51.498;6.556;2023-05-10T13:53:22;9.70;;;8.02;;
8564;SDS011;4320;51.498;6.556;2023-05-10T13:55:48;9.43;;;7.90;;
8564;SDS011;4320;51.498;6.556;2023-05-10T13:58:13;9.38;;;7.32;;
8564;SDS011;4320;51.498;6.556;2023-05-10T14:00:39;10.93;;;8.20;;
8564;SDS011;4320;51.498;6.556;2023-05-10T14:03:05;14.27;;;9.32;;
8564;SDS011;4320;51.498;6.556;2023-05-10T14:05:31;12.38;;;9.75;;
8564;SDS011;4320;51.498;6.556;2023-05-10T14:07:57;11.32;;;8.98;;
8564;SDS011;4320;51.498;6.556;2023-05-10T14:10:23;11.98;;;9.60;;
8564;SDS011;4320;51.498;6.556;2023-05-10T14:12:49;11.18;;;9.98;;
8564;SDS011;4320;51.498;6.556;2023-05-10T14:15:15;13.10;;;10.40;;
8564;SDS011;4320;51.498;6.556;2023-05-10T14:17:41;11.52;;;10.30;;
8564;SDS011;4320;51.498;6.556;2023-05-10T14:20:07;14.18;;;11.68;;
8564;SDS011;4320;51.498;6.556;2023-05-10T14:22:33;12.77;;;11.38;;
8564;SDS011;4320;51.498;6.556;2023-05-10T14:24:59;15.55;;;11.63;;
8564;SDS011;4320;51.498;6.556;2023-05-10T14:27:25;16.52;;;11.43;;
8564;SDS011;4320;51.498;6.556;2023-05-10T14:29:51;19.77;;;13.02;;
8564;SDS011;4320;51.498;6.556;2023-05-10T14:32:16;15.13;;;12.50;;
8564;SDS011;4320;51.498;6.556;2023-05-10T14:34:42;15.00;;;11.65;;
8564;SDS011;4320;51.498;6.556;2023-05-10T14:37:09;15.13;;;12.52;;
8564;SDS011;4320;51.498;6.556;2023-05-10T14:39:36;17.77;;;14.10;;
8564;SDS011;4320;51.498;6.556;2023-05-10T14:42:04;18.55;;;13.65;;
8564;SDS011;4320;51.498;6.556;2023-05-10T14:45:02;8.82;;;6.22;;
8564;SDS011;4320;51.498;6.556;2023-05-10T14:47:29;3.00;;;2.65;;
8564;SDS011;4320;51.498;6.556;2023-05-10T14:49:55;3.42;;;2.13;;
8564;SDS011;4320;51.498;6.556;2023-05-10T14:52:20;3.53;;;2.15;;
8564;SDS011;4320;51.498;6.556;2023-05-10T14:54:46;2.85;;;2.38;;
8564;SDS011;4320;51.498;6.556;2023-05-10T14:57:11;4.78;;;2.22;;
8564;SDS011;4320;51.498;6.556;2023-05-10T14:59:37;5.50;;;2.80;;
8564;SDS011;4320;51.498;6.556;2023-05-10T15:02:03;5.03;;;2.95;;
8564;SDS011;4320;51.498;6.556;2023-05-10T15:04:29;8.20;;;3.80;;
8564;SDS011;4320;51.498;6.556;2023-05-10T15:06:55;8.18;;;3.90;;
8564;SDS011;4320;51.498;6.556;2023-05-10T15:09:24;6.85;;;4.18;;
8564;SDS011;4320;51.498;6.556;2023-05-10T15:11:49;5.32;;;3.53;;
8564;SDS011;4320;51.498;6.556;2023-05-10T15:14:15;6.47;;;4.85;;
8564;SDS011;4320;51.498;6.556;2023-05-10T15:16:41;6.50;;;3.97;;
8564;SDS011;4320;51.498;6.556;2023-05-10T15:19:06;5.43;;;3.85;;
8564;SDS011;4320;51.498;6.556;2023-05-10T15:21:32;6.00;;;4.90;;
8564;SDS011;4320;51.498;6.556;2023-05-10T15:24:03;5.35;;;4.85;;
8564;SDS011;4320;51.498;6.556;2023-05-10T15:26:30;5.50;;;4.68;;